.
WxDataArchive / Data Records for 2007-11-15
2007-11-14 November 2007 2007-11-16

Data Records for Thursday, 15 November 2007

Time	Temp	Chill	HIndex	Humid	Dewpt	 Wind 	HiWind	WindDir	Rain 	Barom 
-----	----	-----	------	-----	-----	------	------	-------	-----	----- 
00:00	44.6	44.6	44.6	48	26.1	2	5	292	0.00	29.741 
00:05	44.5	44.5	44.5	49	26.5	1	3	315	0.00	29.741 
00:10	44.5	44.5	44.5	50	27.0	1	3	315	0.00	29.741 
00:15	44.3	44.3	44.3	49	26.4	1	3	292	0.00	29.742 
00:20	44.3	44.3	44.3	50	26.8	1	3	248	0.00	29.743 
00:25	44.2	44.2	44.2	49	26.3	1	4	248	0.00	29.742 
00:30	44.2	44.2	44.2	50	26.8	1	3	248	0.00	29.739 
00:35	44.1	44.1	44.1	50	26.7	1	4	270	0.00	29.740 
00:40	44.1	44.1	44.1	50	26.7	1	3	248	0.00	29.741 
00:45	44.1	44.1	44.1	50	26.7	1	3	225	0.00	29.738 
00:50	43.9	43.9	43.9	51	27.0	1	4	270	0.00	29.735 
00:55	43.9	43.9	43.9	51	27.0	1	4	248	0.00	29.734 
01:00	43.9	43.9	43.9	51	27.0	1	3	248	0.00	29.733 
01:05	43.9	43.9	43.9	52	27.4	1	3	248	0.00	29.729 
01:10	43.9	43.9	43.9	52	27.4	2	3	292	0.00	29.732 
01:15	43.8	43.8	43.8	52	27.3	1	3	225	0.00	29.731 
01:20	43.8	43.8	43.8	52	27.3	1	5	248	0.00	29.731 
01:25	43.8	43.8	43.8	53	27.8	1	4	225	0.00	29.731 
01:30	43.8	43.8	43.8	53	27.8	2	6	248	0.00	29.729 
01:35	43.6	43.6	43.6	53	27.6	1	4	248	0.00	29.731 
01:40	43.6	43.6	43.6	53	27.6	1	4	248	0.00	29.729 
01:45	43.5	43.5	43.5	53	27.5	2	5	248	0.00	29.731 
01:50	43.3	43.3	43.3	52	26.9	3	7	248	0.00	29.731 
01:55	43.3	43.3	43.3	52	26.9	2	9	248	0.00	29.736 
02:00	43.1	43.1	43.1	51	26.2	3	9	248	0.00	29.739 
02:05	42.9	42.9	42.9	51	26.0	2	6	248	0.00	29.738 
02:10	42.8	42.8	42.8	53	26.9	2	5	248	0.00	29.739 
02:15	42.5	42.5	42.5	58	28.8	3	9	270	0.00	29.742 
02:20	41.9	41.9	41.9	65	31.0	2	6	270	0.00	29.744 
02:25	41.3	41.3	41.3	67	31.2	2	6	270	0.00	29.745 
02:30	41.1	41.1	41.1	68	31.4	2	5	270	0.00	29.745 
02:35	40.9	40.9	40.9	69	31.5	3	6	270	0.00	29.745 
02:40	40.8	40.8	40.8	70	31.8	2	4	248	0.00	29.745 
02:45	40.6	40.6	40.6	70	31.6	2	5	270	0.00	29.747 
02:50	40.5	40.5	40.5	71	31.8	3	6	270	0.00	29.746 
02:55	40.3	40.3	40.3	71	31.7	3	5	270	0.00	29.748 
03:00	40.3	40.3	40.3	71	31.7	1	4	248	0.00	29.747 
03:05	40.3	40.3	40.3	70	31.3	1	3	248	0.00	29.748 
03:10	40.3	40.3	40.3	69	31.0	1	5	248	0.00	29.748 
03:15	40.6	40.6	40.6	66	30.1	1	3	248	0.00	29.748 
03:20	40.8	40.8	40.8	65	30.0	2	5	248	0.00	29.748 
03:25	40.8	40.8	40.8	64	29.6	2	6	248	0.00	29.748 
03:30	40.9	40.9	40.9	62	28.9	2	5	270	0.00	29.747 
03:35	40.9	40.9	40.9	62	28.9	2	4	270	0.00	29.747 
03:40	40.9	40.9	40.9	62	28.9	2	4	248	0.00	29.747 
03:45	40.9	40.9	40.9	62	28.9	1	3	248	0.00	29.747 
03:50	40.9	40.9	40.9	60	28.1	2	5	315	0.00	29.747 
03:55	40.9	40.9	40.9	60	28.1	2	5	248	0.00	29.747 
04:00	40.9	40.9	40.9	59	27.7	2	4	248	0.00	29.748 
04:05	40.8	40.8	40.8	59	27.6	1	3	248	0.00	29.750 
04:10	40.8	40.8	40.8	58	27.2	2	6	248	0.00	29.750 
04:15	40.8	40.8	40.8	57	26.8	3	6	270	0.00	29.750 
04:20	40.8	40.8	40.8	57	26.8	2	5	270	0.00	29.750 
04:25	40.8	40.8	40.8	57	26.8	2	4	248	0.00	29.752 
04:30	40.6	40.6	40.6	58	27.0	1	4	248	0.00	29.753 
04:35	40.6	40.6	40.6	58	27.0	2	6	270	0.00	29.752 
04:40	40.5	40.5	40.5	58	26.9	2	5	270	0.00	29.753 
04:45	40.5	40.5	40.5	58	26.9	2	5	270	0.00	29.756 
04:50	40.5	40.5	40.5	58	26.9	2	4	315	0.00	29.756 
04:55	40.5	40.5	40.5	58	26.9	2	4	270	0.00	29.757 
05:00	40.5	40.5	40.5	59	27.3	2	4	270	0.00	29.762 
05:05	40.3	40.3	40.3	61	27.9	3	10	270	0.00	29.765 
05:10	40.1	40.1	40.1	64	28.9	3	5	292	0.00	29.767 
05:15	39.6	36.9	39.6	66	29.2	4	7	292	0.00	29.767 
05:20	39.2	39.2	39.2	69	29.9	2	6	315	0.00	29.776 
05:25	38.8	38.8	38.8	71	30.2	3	9	292	0.00	29.777 
05:30	38.3	38.3	38.3	74	30.8	2	5	315	0.00	29.780 
05:35	37.9	37.9	37.9	77	31.3	1	3	315	0.00	29.784 
05:40	37.5	37.5	37.5	81	32.2	1	4	315	0.00	29.784 
05:45	36.9	36.9	36.9	83	32.2	1	4	315	0.00	29.786 
05:50	36.6	36.6	36.6	84	32.2	1	4	315	0.00	29.786 
05:55	36.6	36.6	36.6	86	32.8	1	3	338	0.00	29.787 
06:00	36.5	36.5	36.5	86	32.7	1	2	315	0.00	29.787 
06:05	36.5	36.5	36.5	87	33.0	0	2	270	0.00	29.790 
06:10	36.5	36.5	36.5	87	33.0	1	2	270	0.00	29.791 
06:15	36.5	36.5	36.5	88	33.3	1	5	270	0.00	29.791 
06:20	36.5	36.5	36.5	88	33.3	1	2	270	0.00	29.791 
06:25	36.5	36.5	36.5	88	33.3	1	6	248	0.00	29.792 
06:30	36.5	36.5	36.5	88	33.3	1	5	270	0.00	29.796 
06:35	36.3	36.3	36.3	87	32.8	1	5	248	0.00	29.799 
06:40	36.3	36.3	36.3	88	33.1	1	4	248	0.00	29.797 
06:45	36.2	36.2	36.2	88	33.0	1	4	248	0.00	29.800 
06:50	36.2	36.2	36.2	88	33.0	2	5	248	0.00	29.800 
06:55	36.2	36.2	36.2	88	33.0	1	3	248	0.00	29.802 
07:00	36.3	36.3	36.3	87	32.8	1	5	248	0.00	29.801 
07:05	36.5	36.5	36.5	87	33.0	1	4	248	0.00	29.806 
07:10	36.5	36.5	36.5	87	33.0	1	2	292	0.00	29.805 
07:15	36.5	36.5	36.5	86	32.7	2	5	270	0.00	29.805 
07:20	36.6	36.6	36.6	85	32.5	1	4	270	0.00	29.805 
07:25	36.6	36.6	36.6	85	32.5	0	2	292	0.00	29.807 
07:30	36.6	36.6	36.6	85	32.5	1	3	248	0.00	29.807 
07:35	36.6	36.6	36.6	84	32.2	1	3	248	0.00	29.809 
07:40	36.6	36.6	36.6	83	31.9	1	5	270	0.00	29.811 
07:45	36.8	36.8	36.8	82	31.8	2	4	248	0.00	29.814 
07:50	36.9	36.9	36.9	81	31.6	2	5	248	0.00	29.817 
07:55	37.0	37.0	37.0	80	31.4	2	6	248	0.00	29.818 
08:00	37.0	37.0	37.0	80	31.4	2	5	248	0.00	29.820 
08:05	36.9	36.9	36.9	81	31.6	3	6	248	0.00	29.822 
08:10	36.6	36.6	36.6	82	31.6	3	6	270	0.01	29.824 
08:15	36.5	36.5	36.5	84	32.1	2	4	270	0.00	29.824 
08:20	36.2	36.2	36.2	85	32.1	2	5	248	0.00	29.826 
08:25	36.2	36.2	36.2	86	32.4	2	7	248	0.00	29.829 
08:30	36.2	36.2	36.2	86	32.4	3	7	248	0.00	29.831 
08:35	36.2	36.2	36.2	86	32.4	2	4	270	0.00	29.832 
08:40	36.2	36.2	36.2	86	32.4	3	7	270	0.00	29.835 
08:45	36.2	36.2	36.2	86	32.4	2	5	248	0.00	29.837 
08:50	36.2	36.2	36.2	87	32.7	3	6	270	0.00	29.838 
08:55	36.2	36.2	36.2	87	32.7	2	4	248	0.00	29.839 
09:00	36.2	36.2	36.2	88	33.0	2	6	248	0.00	29.839 
09:05	36.3	36.3	36.3	88	33.1	3	5	270	0.00	29.839 
09:10	36.5	36.5	36.5	88	33.3	3	6	270	0.00	29.837 
09:15	36.5	36.5	36.5	88	33.3	2	5	270	0.00	29.838 
09:20	36.6	36.6	36.6	88	33.4	2	4	270	0.00	29.838 
09:25	36.6	36.6	36.6	88	33.4	3	5	270	0.00	29.837 
09:30	36.8	36.8	36.8	88	33.6	3	6	270	0.00	29.837 
09:35	36.8	36.8	36.8	87	33.3	3	6	270	0.00	29.838 
09:40	36.9	36.9	36.9	87	33.4	3	5	270	0.00	29.837 
09:45	37.0	37.0	37.0	87	33.5	3	9	270	0.00	29.838 
09:50	37.0	37.0	37.0	87	33.5	2	5	270	0.00	29.839 
09:55	37.2	37.2	37.2	88	34.0	2	6	248	0.00	29.840 
10:00	37.3	37.3	37.3	87	33.8	3	6	270	0.00	29.842 
10:05	37.3	37.3	37.3	87	33.8	3	5	292	0.00	29.846 
10:10	37.3	37.3	37.3	87	33.8	3	5	270	0.00	29.850 
10:15	37.3	37.3	37.3	87	33.8	3	6	270	0.00	29.851 
10:20	37.3	37.3	37.3	87	33.8	2	6	270	0.00	29.853 
10:25	37.3	37.3	37.3	87	33.8	3	7	292	0.00	29.854 
10:30	37.5	34.4	37.5	87	34.0	4	7	270	0.00	29.852 
10:35	37.5	37.5	37.5	87	34.0	3	6	270	0.00	29.852 
10:40	37.5	37.5	37.5	87	34.0	3	7	270	0.00	29.853 
10:45	37.6	37.6	37.6	87	34.1	2	7	292	0.00	29.855 
10:50	37.6	34.5	37.6	87	34.1	4	9	270	0.00	29.857 
10:55	37.8	37.8	37.8	87	34.3	3	6	270	0.00	29.856 
11:00	37.8	37.8	37.8	87	34.3	3	7	270	0.00	29.861 
11:05	37.9	34.9	37.9	86	34.1	4	10	270	0.00	29.865 
11:10	37.9	37.9	37.9	87	34.4	3	9	270	0.00	29.867 
11:15	37.9	37.9	37.9	87	34.4	3	7	270	0.00	29.867 
11:20	37.8	37.8	37.8	88	34.6	3	6	270	0.00	29.868 
11:25	37.6	34.5	37.6	88	34.4	4	7	270	0.00	29.870 
11:30	37.6	37.6	37.6	88	34.4	2	7	270	0.00	29.870 
11:35	37.8	37.8	37.8	89	34.9	3	9	270	0.00	29.871 
11:40	37.6	37.6	37.6	88	34.4	2	6	270	0.00	29.872 
11:45	37.8	37.8	37.8	89	34.9	2	12	315	0.00	29.872 
11:50	37.8	37.8	37.8	89	34.9	3	7	270	0.00	29.871 
11:55	37.8	34.8	37.8	88	34.6	4	11	292	0.00	29.872 
12:00	38.0	38.0	38.0	89	35.1	3	6	315	0.00	29.872 
12:05	38.0	38.0	38.0	88	34.8	3	7	315	0.00	29.873 
12:10	38.0	38.0	38.0	88	34.8	2	5	315	0.00	29.874 
12:15	38.0	38.0	38.0	88	34.8	3	7	315	0.00	29.872 
12:20	37.9	34.9	37.9	87	34.4	4	13	292	0.00	29.873 
12:25	38.2	38.2	38.2	87	34.7	3	6	315	0.00	29.872 
12:30	38.5	38.5	38.5	87	35.0	2	6	315	0.00	29.875 
12:35	38.6	35.7	38.6	86	34.8	4	11	338	0.00	29.877 
12:40	38.6	35.7	38.6	85	34.5	4	9	315	0.00	29.877 
12:45	38.5	35.6	38.5	84	34.1	4	9	270	0.00	29.880 
12:50	38.5	38.5	38.5	84	34.1	3	9	315	0.00	29.881 
12:55	38.5	38.5	38.5	83	33.8	3	9	315	0.00	29.882 
13:00	38.5	35.6	38.5	82	33.5	4	7	315	0.00	29.884 
13:05	38.5	38.5	38.5	81	33.2	3	6	338	0.00	29.885 
13:10	38.8	38.8	38.8	81	33.5	3	12	315	0.00	29.887 
13:15	38.6	38.6	38.6	80	33.0	3	10	315	0.00	29.889 
13:20	38.5	38.5	38.5	81	33.2	3	6	270	0.00	29.890 
13:25	38.6	38.6	38.6	81	33.3	2	5	315	0.00	29.894 
13:30	38.3	38.3	38.3	81	33.0	3	10	315	0.00	29.897 
13:35	38.2	38.2	38.2	82	33.2	3	7	292	0.00	29.898 
13:40	38.6	38.6	38.6	81	33.3	2	6	315	0.00	29.896 
13:45	39.1	39.1	39.1	80	33.5	3	11	315	0.00	29.899 
13:50	39.1	39.1	39.1	78	32.8	3	7	315	0.00	29.901 
13:55	38.9	38.9	38.9	78	32.6	2	6	315	0.00	29.903 
14:00	38.5	38.5	38.5	79	32.6	2	6	315	0.00	29.906 
14:05	38.3	38.3	38.3	81	33.0	2	6	0	0.00	29.915 
14:10	37.6	37.6	37.6	82	32.6	2	5	0	0.00	29.917 
14:15	37.3	37.3	37.3	83	32.6	3	4	315	0.00	29.920 
14:20	37.3	37.3	37.3	82	32.3	1	3	315	0.00	29.922 
14:25	37.6	37.6	37.6	81	32.3	1	3	22	0.00	29.920 
14:30	37.8	37.8	37.8	81	32.5	2	5	292	0.00	29.921 
14:35	37.9	37.9	37.9	79	32.0	1	4	315	0.00	29.921 
14:40	38.0	38.0	38.0	77	31.4	1	4	315	0.00	29.922 
14:45	38.2	38.2	38.2	77	31.6	1	5	338	0.00	29.924 
14:50	38.3	38.3	38.3	74	30.8	2	5	315	0.00	29.923 
14:55	38.5	38.5	38.5	73	30.6	3	6	270	0.00	29.923 
15:00	38.6	38.6	38.6	72	30.4	2	7	270	0.00	29.923 
15:05	38.8	38.8	38.8	71	30.2	2	9	315	0.00	29.924 
15:10	38.8	38.8	38.8	70	29.9	3	7	315	0.00	29.929 
15:15	38.8	38.8	38.8	71	30.2	2	5	270	0.00	29.933 
15:20	38.6	38.6	38.6	69	29.3	3	6	292	0.00	29.936 
15:25	38.6	38.6	38.6	69	29.3	3	7	292	0.00	29.938 
15:30	38.6	38.6	38.6	67	28.6	2	5	315	0.00	29.940 
15:35	38.6	38.6	38.6	67	28.6	2	6	338	0.00	29.946 
15:40	38.5	38.5	38.5	66	28.1	2	6	315	0.00	29.950 
15:45	38.5	38.5	38.5	67	28.5	2	5	315	0.00	29.952 
15:50	38.5	38.5	38.5	67	28.5	3	5	292	0.00	29.953 
15:55	38.3	38.3	38.3	68	28.7	2	4	315	0.00	29.958 
16:00	38.3	38.3	38.3	69	29.0	2	4	292	0.00	29.961 
16:05	38.2	38.2	38.2	67	28.2	2	4	338	0.00	29.964 
16:10	38.2	38.2	38.2	67	28.2	2	5	338	0.00	29.966 
16:15	38.2	38.2	38.2	66	27.9	2	6	270	0.00	29.966 
16:20	38.5	38.5	38.5	65	27.8	2	5	270	0.00	29.967 
16:25	38.3	35.4	38.3	63	26.8	4	10	338	0.00	29.970 
16:30	38.3	38.3	38.3	64	27.2	3	7	315	0.00	29.974 
16:35	38.2	35.2	38.2	63	26.7	4	10	315	0.00	29.978 
16:40	38.2	38.2	38.2	64	27.1	2	5	315	0.00	29.980 
16:45	38.0	38.0	38.0	64	26.9	2	4	315	0.00	29.983 
16:50	37.9	37.9	37.9	62	26.1	3	5	315	0.00	29.985 
16:55	37.6	37.6	37.6	62	25.8	2	5	315	0.00	29.985 
17:00	37.2	37.2	37.2	63	25.8	1	4	270	0.00	29.987 
17:05	36.9	36.9	36.9	64	25.9	1	4	270	0.00	29.991 
17:10	36.8	36.8	36.8	63	25.4	2	5	292	0.00	29.994 
17:15	36.6	36.6	36.6	62	24.8	2	4	315	0.00	29.997 
17:20	36.5	36.5	36.5	63	25.1	2	5	292	0.00	29.999 
17:25	36.3	36.3	36.3	63	24.9	3	7	270	0.00	30.004 
17:30	36.3	36.3	36.3	63	24.9	2	5	315	0.00	30.004 
17:35	36.2	36.2	36.2	64	25.2	2	6	270	0.00	30.006 
17:40	36.2	36.2	36.2	63	24.8	2	6	292	0.00	30.006 
17:45	36.2	36.2	36.2	63	24.8	2	5	292	0.00	30.006 
17:50	36.0	36.0	36.0	63	24.6	3	6	270	0.00	30.007 
17:55	36.0	36.0	36.0	63	24.6	2	5	315	0.00	30.007 
18:00	36.0	36.0	36.0	62	24.3	2	5	270	0.00	30.013 
18:05	36.0	36.0	36.0	62	24.3	2	6	338	0.00	30.015 
18:10	36.0	36.0	36.0	62	24.3	2	4	270	0.00	30.016 
18:15	35.9	35.9	35.9	62	24.2	2	5	315	0.00	30.013 
18:20	36.0	36.0	36.0	62	24.3	2	5	338	0.00	30.018 
18:25	36.0	36.0	36.0	62	24.3	2	10	292	0.00	30.020 
18:30	36.0	36.0	36.0	62	24.3	2	4	270	0.00	30.022 
18:35	36.0	36.0	36.0	62	24.3	1	5	315	0.00	30.023 
18:40	36.0	36.0	36.0	62	24.3	2	7	338	0.00	30.030 
18:45	36.0	36.0	36.0	62	24.3	1	4	315	0.00	30.031 
18:50	36.0	36.0	36.0	62	24.3	2	4	315	0.00	30.033 
18:55	36.0	36.0	36.0	62	24.3	2	5	292	0.00	30.035 
19:00	35.9	35.9	35.9	63	24.5	1	3	338	0.00	30.036 
19:05	35.8	35.8	35.8	62	24.1	1	3	270	0.00	30.037 
19:10	35.8	35.8	35.8	62	24.1	2	5	270	0.00	30.039 
19:15	35.8	35.8	35.8	63	24.5	1	4	270	0.00	30.040 
19:20	35.8	35.8	35.8	62	24.1	1	4	338	0.00	30.039 
19:25	35.8	35.8	35.8	62	24.1	2	6	270	0.00	30.041 
19:30	35.8	35.8	35.8	62	24.1	2	6	270	0.00	30.041 
19:35	35.8	35.8	35.8	62	24.1	1	3	315	0.00	30.040 
19:40	35.8	35.8	35.8	62	24.1	2	5	270	0.00	30.042 
19:45	35.8	35.8	35.8	62	24.1	1	4	248	0.00	30.046 
19:50	35.8	35.8	35.8	62	24.1	1	4	270	0.00	30.050 
19:55	35.8	35.8	35.8	62	24.1	1	3	270	0.00	30.051 
20:00	35.8	35.8	35.8	63	24.5	1	4	248	0.00	30.050 
20:05	35.8	35.8	35.8	63	24.5	1	4	248	0.00	30.051 
20:10	35.8	35.8	35.8	63	24.5	1	3	248	0.00	30.050 
20:15	35.8	35.8	35.8	63	24.5	1	4	248	0.00	30.049 
20:20	35.8	35.8	35.8	63	24.5	1	5	248	0.00	30.048 
20:25	35.6	35.6	35.6	62	23.9	2	4	270	0.00	30.045 
20:30	35.6	35.6	35.6	62	23.9	1	4	270	0.00	30.044 
20:35	35.6	35.6	35.6	62	23.9	1	4	270	0.00	30.044 
20:40	35.6	35.6	35.6	62	23.9	2	3	270	0.00	30.046 
20:45	35.6	35.6	35.6	62	23.9	1	4	248	0.00	30.049 
20:50	35.6	35.6	35.6	62	23.9	1	3	248	0.00	30.052 
20:55	35.6	35.6	35.6	62	23.9	1	4	338	0.00	30.052 
21:00	35.6	35.6	35.6	62	23.9	1	3	315	0.00	30.054 
21:05	35.6	35.6	35.6	62	23.9	1	3	292	0.00	30.054 
21:10	35.6	35.6	35.6	62	23.9	1	4	338	0.00	30.056 
21:15	35.6	35.6	35.6	62	23.9	2	5	270	0.00	30.057 
21:20	35.6	35.6	35.6	62	23.9	2	5	270	0.00	30.060 
21:25	35.6	35.6	35.6	61	23.5	1	4	315	0.00	30.061 
21:30	35.6	35.6	35.6	62	23.9	1	3	270	0.00	30.059 
21:35	35.6	35.6	35.6	61	23.5	1	6	270	0.00	30.057 
21:40	35.6	35.6	35.6	61	23.5	1	3	315	0.00	30.057 
21:45	35.6	35.6	35.6	61	23.5	1	3	292	0.00	30.054 
21:50	35.6	35.6	35.6	60	23.1	1	3	248	0.00	30.052 
21:55	35.6	35.6	35.6	61	23.5	1	3	270	0.00	30.053 
22:00	35.6	35.6	35.6	61	23.5	1	3	248	0.00	30.052 
22:05	35.6	35.6	35.6	61	23.5	1	3	270	0.00	30.051 
22:10	35.6	35.6	35.6	61	23.5	1	2	270	0.00	30.053 
22:15	35.6	35.6	35.6	62	23.9	1	3	270	0.00	30.054 
22:20	35.6	35.6	35.6	61	23.5	1	4	270	0.00	30.052 
22:25	35.6	35.6	35.6	61	23.5	1	3	292	0.00	30.052 
22:30	35.6	35.6	35.6	61	23.5	1	3	270	0.00	30.053 
22:35	35.5	35.5	35.5	62	23.8	1	2	270	0.00	30.053 
22:40	35.5	35.5	35.5	61	23.4	1	4	292	0.00	30.054 
22:45	35.5	35.5	35.5	61	23.4	1	4	270	0.00	30.055 
22:50	35.5	35.5	35.5	61	23.4	2	5	270	0.00	30.055 
22:55	35.5	35.5	35.5	61	23.4	1	3	248	0.00	30.054 
23:00	35.5	35.5	35.5	61	23.4	1	2	270	0.00	30.054 
23:05	35.5	35.5	35.5	61	23.4	1	4	248	0.00	30.055 
23:10	35.5	35.5	35.5	62	23.8	0	2	248	0.00	30.055 
23:15	35.5	35.5	35.5	62	23.8	1	3	270	0.00	30.054 
23:20	35.3	35.3	35.3	62	23.6	0	2	270	0.00	30.054 
23:25	35.3	35.3	35.3	62	23.6	0	2	248	0.00	30.056 
23:30	35.3	35.3	35.3	62	23.6	0	3	248	0.00	30.061 
23:35	35.3	35.3	35.3	62	23.6	1	3	248	0.00	30.062 
23:40	35.3	35.3	35.3	62	23.6	1	4	270	0.00	30.061 
23:45	35.3	35.3	35.3	62	23.6	0	2	270	0.00	30.062 
23:50	35.3	35.3	35.3	62	23.6	0	3	248	0.00	30.064 
23:55	35.3	35.3	35.3	62	23.6	0	2	248	0.00	30.065 

CoCoRaHS
IN-AL-39
A2 Web Hosting
Creative Commons License
GoDaddy
Look for:

loaded 2017-10-18 22:09:25 • last modified 2010-11-18 10:43:29
Privacy PolicyDisclaimer
• wx.awcolley.com is powered by PmWiki v.2002016 •
• all content (unless otherwise noted) © 2017 A W Colley